sensor_id;sensor_type;location;lat;lon;timestamp;P1;durP1;ratioP1;P2;durP2;ratioP2
27209;SDS011;14721;42.668;23.386;2023-08-30T00:17:25;14.32;;;8.15;;
27209;SDS011;14721;42.668;23.386;2023-08-30T00:27:07;13.90;;;8.13;;
27209;SDS011;14721;42.668;23.386;2023-08-30T00:30:02;13.68;;;8.18;;
27209;SDS011;14721;42.668;23.386;2023-08-30T00:32:40;15.05;;;8.45;;
27209;SDS011;14721;42.668;23.386;2023-08-30T00:35:30;11.23;;;7.25;;
27209;SDS011;14721;42.668;23.386;2023-08-30T01:00:09;9.40;;;5.47;;
27209;SDS011;14721;42.668;23.386;2023-08-30T01:14:38;11.25;;;6.05;;
27209;SDS011;14721;42.668;23.386;2023-08-30T01:17:27;8.50;;;5.50;;
27209;SDS011;14721;42.668;23.386;2023-08-30T01:20:07;10.48;;;6.38;;
27209;SDS011;14721;42.668;23.386;2023-08-30T01:27:21;10.90;;;6.63;;
27209;SDS011;14721;42.668;23.386;2023-08-30T01:29:28;13.52;;;7.25;;
27209;SDS011;14721;42.668;23.386;2023-08-30T01:31:55;12.48;;;6.75;;
27209;SDS011;14721;42.668;23.386;2023-08-30T01:34:26;13.07;;;6.72;;
27209;SDS011;14721;42.668;23.386;2023-08-30T01:36:55;9.88;;;6.38;;
27209;SDS011;14721;42.668;23.386;2023-08-30T01:39:21;8.77;;;5.55;;
27209;SDS011;14721;42.668;23.386;2023-08-30T01:41:53;10.25;;;6.07;;
27209;SDS011;14721;42.668;23.386;2023-08-30T01:44:28;12.52;;;6.07;;
27209;SDS011;14721;42.668;23.386;2023-08-30T01:46:57;13.35;;;6.78;;
27209;SDS011;14721;42.668;23.386;2023-08-30T01:49:24;9.90;;;5.95;;
27209;SDS011;14721;42.668;23.386;2023-08-30T01:51:54;11.98;;;6.43;;
27209;SDS011;14721;42.668;23.386;2023-08-30T01:56:59;10.05;;;5.70;;
27209;SDS011;14721;42.668;23.386;2023-08-30T01:59:28;14.05;;;6.07;;
27209;SDS011;14721;42.668;23.386;2023-08-30T02:01:57;11.68;;;6.53;;
27209;SDS011;14721;42.668;23.386;2023-08-30T02:04:22;14.63;;;8.00;;
27209;SDS011;14721;42.668;23.386;2023-08-30T02:21:23;12.50;;;7.45;;
27209;SDS011;14721;42.668;23.386;2023-08-30T02:30:20;16.30;;;7.82;;
27209;SDS011;14721;42.668;23.386;2023-08-30T02:32:46;15.57;;;7.68;;
27209;SDS011;14721;42.668;23.386;2023-08-30T02:35:37;13.32;;;7.63;;
27209;SDS011;14721;42.668;23.386;2023-08-30T02:40:47;12.70;;;7.03;;
27209;SDS011;14721;42.668;23.386;2023-08-30T02:43:36;14.73;;;7.47;;
27209;SDS011;14721;42.668;23.386;2023-08-30T02:46:05;14.65;;;8.13;;
27209;SDS011;14721;42.668;23.386;2023-08-30T02:49:08;13.25;;;7.85;;
27209;SDS011;14721;42.668;23.386;2023-08-30T02:51:44;14.18;;;7.88;;
27209;SDS011;14721;42.668;23.386;2023-08-30T02:54:34;16.75;;;8.10;;
27209;SDS011;14721;42.668;23.386;2023-08-30T02:57:02;15.07;;;8.48;;
27209;SDS011;14721;42.668;23.386;2023-08-30T02:59:28;12.57;;;8.50;;
27209;SDS011;14721;42.668;23.386;2023-08-30T03:01:54;14.90;;;8.75;;
27209;SDS011;14721;42.668;23.386;2023-08-30T03:04:21;14.95;;;8.25;;
27209;SDS011;14721;42.668;23.386;2023-08-30T03:06:50;14.57;;;7.85;;
27209;SDS011;14721;42.668;23.386;2023-08-30T03:09:15;18.88;;;9.45;;
27209;SDS011;14721;42.668;23.386;2023-08-30T03:11:43;16.05;;;8.60;;
27209;SDS011;14721;42.668;23.386;2023-08-30T03:14:09;14.00;;;9.15;;
27209;SDS011;14721;42.668;23.386;2023-08-30T03:16:34;13.32;;;7.80;;
27209;SDS011;14721;42.668;23.386;2023-08-30T03:19:00;16.10;;;8.38;;
27209;SDS011;14721;42.668;23.386;2023-08-30T03:21:25;16.67;;;9.30;;
27209;SDS011;14721;42.668;23.386;2023-08-30T03:23:54;18.42;;;9.35;;
27209;SDS011;14721;42.668;23.386;2023-08-30T03:26:19;14.45;;;8.10;;
27209;SDS011;14721;42.668;23.386;2023-08-30T03:28:48;14.57;;;8.88;;
27209;SDS011;14721;42.668;23.386;2023-08-30T03:31:16;13.18;;;8.65;;
27209;SDS011;14721;42.668;23.386;2023-08-30T03:33:43;18.15;;;9.27;;
27209;SDS011;14721;42.668;23.386;2023-08-30T03:36:12;16.83;;;8.93;;
27209;SDS011;14721;42.668;23.386;2023-08-30T03:38:39;14.93;;;7.97;;
27209;SDS011;14721;42.668;23.386;2023-08-30T03:41:08;12.77;;;8.60;;
27209;SDS011;14721;42.668;23.386;2023-08-30T03:43:34;16.58;;;7.93;;
27209;SDS011;14721;42.668;23.386;2023-08-30T03:46:00;16.73;;;8.80;;
27209;SDS011;14721;42.668;23.386;2023-08-30T03:48:29;12.52;;;8.23;;
27209;SDS011;14721;42.668;23.386;2023-08-30T03:50:57;13.10;;;7.70;;
27209;SDS011;14721;42.668;23.386;2023-08-30T03:53:26;20.10;;;7.80;;
27209;SDS011;14721;42.668;23.386;2023-08-30T03:55:55;17.48;;;7.68;;
27209;SDS011;14721;42.668;23.386;2023-08-30T03:58:22;13.55;;;8.48;;
27209;SDS011;14721;42.668;23.386;2023-08-30T04:00:50;16.85;;;8.13;;
27209;SDS011;14721;42.668;23.386;2023-08-30T04:03:16;19.60;;;8.63;;
27209;SDS011;14721;42.668;23.386;2023-08-30T04:05:41;16.45;;;8.63;;
27209;SDS011;14721;42.668;23.386;2023-08-30T04:08:08;13.70;;;8.82;;
27209;SDS011;14721;42.668;23.386;2023-08-30T04:10:37;15.52;;;8.63;;
27209;SDS011;14721;42.668;23.386;2023-08-30T04:13:14;18.40;;;9.52;;
27209;SDS011;14721;42.668;23.386;2023-08-30T04:15:42;12.57;;;8.50;;
27209;SDS011;14721;42.668;23.386;2023-08-30T04:18:10;15.63;;;9.23;;
27209;SDS011;14721;42.668;23.386;2023-08-30T04:20:51;14.20;;;7.63;;
27209;SDS011;14721;42.668;23.386;2023-08-30T04:23:33;13.13;;;6.63;;
27209;SDS011;14721;42.668;23.386;2023-08-30T04:25:59;12.32;;;6.53;;
27209;SDS011;14721;42.668;23.386;2023-08-30T04:28:25;15.18;;;7.72;;
27209;SDS011;14721;42.668;23.386;2023-08-30T04:31:12;11.48;;;6.82;;
27209;SDS011;14721;42.668;23.386;2023-08-30T04:33:47;13.68;;;7.53;;
27209;SDS011;14721;42.668;23.386;2023-08-30T04:36:25;11.65;;;7.53;;
27209;SDS011;14721;42.668;23.386;2023-08-30T04:38:53;15.98;;;8.80;;
27209;SDS011;14721;42.668;23.386;2023-08-30T04:41:19;10.00;;;6.10;;
27209;SDS011;14721;42.668;23.386;2023-08-30T04:47:49;9.30;;;5.15;;
27209;SDS011;14721;42.668;23.386;2023-08-30T04:50:18;10.90;;;5.78;;
27209;SDS011;14721;42.668;23.386;2023-08-30T04:52:43;12.23;;;6.82;;
27209;SDS011;14721;42.668;23.386;2023-08-30T04:55:09;8.88;;;5.43;;
27209;SDS011;14721;42.668;23.386;2023-08-30T04:57:35;9.68;;;5.30;;
27209;SDS011;14721;42.668;23.386;2023-08-30T05:00:12;13.88;;;7.75;;
27209;SDS011;14721;42.668;23.386;2023-08-30T05:02:43;9.32;;;5.32;;
27209;SDS011;14721;42.668;23.386;2023-08-30T05:05:11;11.27;;;6.38;;
27209;SDS011;14721;42.668;23.386;2023-08-30T05:07:46;13.48;;;6.85;;
27209;SDS011;14721;42.668;23.386;2023-08-30T05:10:34;17.48;;;7.97;;
27209;SDS011;14721;42.668;23.386;2023-08-30T05:13:05;16.02;;;9.00;;
27209;SDS011;14721;42.668;23.386;2023-08-30T05:15:33;17.20;;;7.85;;
27209;SDS011;14721;42.668;23.386;2023-08-30T05:18:11;15.95;;;8.27;;
27209;SDS011;14721;42.668;23.386;2023-08-30T05:20:57;17.23;;;8.98;;
27209;SDS011;14721;42.668;23.386;2023-08-30T05:23:22;13.40;;;7.93;;
27209;SDS011;14721;42.668;23.386;2023-08-30T05:25:48;14.93;;;8.15;;
27209;SDS011;14721;42.668;23.386;2023-08-30T05:28:27;19.75;;;11.52;;
27209;SDS011;14721;42.668;23.386;2023-08-30T05:30:52;14.70;;;8.10;;
27209;SDS011;14721;42.668;23.386;2023-08-30T05:33:18;15.38;;;7.47;;
27209;SDS011;14721;42.668;23.386;2023-08-30T05:35:43;16.27;;;9.38;;
27209;SDS011;14721;42.668;23.386;2023-08-30T05:38:16;15.52;;;8.07;;
27209;SDS011;14721;42.668;23.386;2023-08-30T05:40:48;12.70;;;8.05;;
27209;SDS011;14721;42.668;23.386;2023-08-30T05:43:54;12.90;;;7.63;;
27209;SDS011;14721;42.668;23.386;2023-08-30T05:49:57;12.75;;;6.45;;
27209;SDS011;14721;42.668;23.386;2023-08-30T05:53:17;10.05;;;6.82;;
27209;SDS011;14721;42.668;23.386;2023-08-30T05:55:46;8.40;;;6.65;;
27209;SDS011;14721;42.668;23.386;2023-08-30T05:58:11;12.98;;;7.40;;
27209;SDS011;14721;42.668;23.386;2023-08-30T06:00:39;13.15;;;7.03;;
27209;SDS011;14721;42.668;23.386;2023-08-30T06:03:23;11.35;;;6.20;;
27209;SDS011;14721;42.668;23.386;2023-08-30T06:08:47;12.10;;;7.35;;
27209;SDS011;14721;42.668;23.386;2023-08-30T06:11:43;11.40;;;6.40;;
27209;SDS011;14721;42.668;23.386;2023-08-30T06:14:13;13.65;;;7.32;;
27209;SDS011;14721;42.668;23.386;2023-08-30T06:33:07;16.02;;;8.13;;
27209;SDS011;14721;42.668;23.386;2023-08-30T06:48:54;18.58;;;8.50;;
27209;SDS011;14721;42.668;23.386;2023-08-30T06:55:11;22.42;;;11.38;;
27209;SDS011;14721;42.668;23.386;2023-08-30T06:58:00;21.75;;;12.73;;
27209;SDS011;14721;42.668;23.386;2023-08-30T07:00:42;17.92;;;12.32;;
27209;SDS011;14721;42.668;23.386;2023-08-30T07:03:28;18.08;;;10.07;;
27209;SDS011;14721;42.668;23.386;2023-08-30T07:06:20;15.65;;;10.50;;
27209;SDS011;14721;42.668;23.386;2023-08-30T07:09:04;18.92;;;10.27;;
27209;SDS011;14721;42.668;23.386;2023-08-30T07:11:32;13.75;;;9.60;;
27209;SDS011;14721;42.668;23.386;2023-08-30T07:14:06;16.33;;;8.85;;
27209;SDS011;14721;42.668;23.386;2023-08-30T07:16:33;13.95;;;8.18;;
27209;SDS011;14721;42.668;23.386;2023-08-30T07:18:58;13.63;;;7.65;;
27209;SDS011;14721;42.668;23.386;2023-08-30T07:21:24;12.30;;;7.03;;
27209;SDS011;14721;42.668;23.386;2023-08-30T07:23:49;13.45;;;6.50;;
27209;SDS011;14721;42.668;23.386;2023-08-30T07:26:18;16.33;;;8.30;;
27209;SDS011;14721;42.668;23.386;2023-08-30T07:28:51;10.82;;;7.28;;
27209;SDS011;14721;42.668;23.386;2023-08-30T07:31:17;16.02;;;8.88;;
27209;SDS011;14721;42.668;23.386;2023-08-30T07:33:43;13.55;;;8.25;;
27209;SDS011;14721;42.668;23.386;2023-08-30T07:36:12;14.35;;;7.95;;
27209;SDS011;14721;42.668;23.386;2023-08-30T07:38:37;11.43;;;7.50;;
27209;SDS011;14721;42.668;23.386;2023-08-30T07:41:03;13.82;;;7.38;;
27209;SDS011;14721;42.668;23.386;2023-08-30T07:43:30;14.38;;;8.07;;
27209;SDS011;14721;42.668;23.386;2023-08-30T07:45:55;9.80;;;6.05;;
27209;SDS011;14721;42.668;23.386;2023-08-30T07:48:24;11.80;;;6.60;;
27209;SDS011;14721;42.668;23.386;2023-08-30T07:50:51;9.27;;;5.35;;
27209;SDS011;14721;42.668;23.386;2023-08-30T07:53:17;9.70;;;6.28;;
27209;SDS011;14721;42.668;23.386;2023-08-30T07:55:42;10.18;;;5.75;;
27209;SDS011;14721;42.668;23.386;2023-08-30T07:58:12;15.82;;;5.78;;
27209;SDS011;14721;42.668;23.386;2023-08-30T08:00:38;10.80;;;5.20;;
27209;SDS011;14721;42.668;23.386;2023-08-30T08:03:03;11.85;;;6.32;;
27209;SDS011;14721;42.668;23.386;2023-08-30T08:05:32;11.88;;;4.65;;
27209;SDS011;14721;42.668;23.386;2023-08-30T08:08:00;9.73;;;5.60;;
27209;SDS011;14721;42.668;23.386;2023-08-30T08:10:27;10.57;;;5.43;;
27209;SDS011;14721;42.668;23.386;2023-08-30T08:12:56;12.35;;;4.63;;
27209;SDS011;14721;42.668;23.386;2023-08-30T08:15:21;8.85;;;4.55;;
27209;SDS011;14721;42.668;23.386;2023-08-30T08:17:52;8.80;;;4.70;;
27209;SDS011;14721;42.668;23.386;2023-08-30T08:20:17;8.57;;;4.30;;
27209;SDS011;14721;42.668;23.386;2023-08-30T08:22:43;11.95;;;4.20;;
27209;SDS011;14721;42.668;23.386;2023-08-30T08:25:10;7.55;;;4.35;;
27209;SDS011;14721;42.668;23.386;2023-08-30T08:27:36;9.73;;;4.05;;
27209;SDS011;14721;42.668;23.386;2023-08-30T08:30:05;12.10;;;4.45;;
27209;SDS011;14721;42.668;23.386;2023-08-30T08:32:31;6.47;;;3.85;;
27209;SDS011;14721;42.668;23.386;2023-08-30T08:34:57;9.60;;;3.67;;
27209;SDS011;14721;42.668;23.386;2023-08-30T08:37:41;6.65;;;3.67;;
27209;SDS011;14721;42.668;23.386;2023-08-30T08:40:16;7.75;;;3.72;;
27209;SDS011;14721;42.668;23.386;2023-08-30T08:42:41;7.07;;;3.33;;
27209;SDS011;14721;42.668;23.386;2023-08-30T08:45:10;6.68;;;3.13;;
27209;SDS011;14721;42.668;23.386;2023-08-30T08:47:49;10.75;;;2.65;;
27209;SDS011;14721;42.668;23.386;2023-08-30T08:50:16;10.20;;;3.10;;
27209;SDS011;14721;42.668;23.386;2023-08-30T08:52:42;16.73;;;3.72;;
27209;SDS011;14721;42.668;23.386;2023-08-30T08:55:08;10.88;;;2.88;;
27209;SDS011;14721;42.668;23.386;2023-08-30T08:57:36;6.97;;;3.55;;
27209;SDS011;14721;42.668;23.386;2023-08-30T09:00:16;6.68;;;2.78;;
27209;SDS011;14721;42.668;23.386;2023-08-30T09:02:43;6.65;;;3.33;;
27209;SDS011;14721;42.668;23.386;2023-08-30T09:05:30;7.95;;;2.67;;
27209;SDS011;14721;42.668;23.386;2023-08-30T09:07:59;8.50;;;2.70;;
27209;SDS011;14721;42.668;23.386;2023-08-30T09:10:28;4.78;;;2.88;;
27209;SDS011;14721;42.668;23.386;2023-08-30T09:13:01;8.35;;;3.70;;
27209;SDS011;14721;42.668;23.386;2023-08-30T09:15:33;6.28;;;3.40;;
27209;SDS011;14721;42.668;23.386;2023-08-30T09:18:17;5.70;;;2.97;;
27209;SDS011;14721;42.668;23.386;2023-08-30T09:20:45;10.23;;;3.50;;
27209;SDS011;14721;42.668;23.386;2023-08-30T09:23:20;4.63;;;2.47;;
27209;SDS011;14721;42.668;23.386;2023-08-30T09:25:53;8.68;;;2.83;;
27209;SDS011;14721;42.668;23.386;2023-08-30T09:28:19;6.90;;;3.50;;
27209;SDS011;14721;42.668;23.386;2023-08-30T09:30:57;10.38;;;2.83;;
27209;SDS011;14721;42.668;23.386;2023-08-30T09:34:02;7.93;;;3.03;;
27209;SDS011;14721;42.668;23.386;2023-08-30T09:36:51;6.45;;;3.17;;
27209;SDS011;14721;42.668;23.386;2023-08-30T09:43:17;5.60;;;2.97;;
27209;SDS011;14721;42.668;23.386;2023-08-30T09:49:49;4.43;;;2.55;;
27209;SDS011;14721;42.668;23.386;2023-08-30T09:52:41;7.40;;;3.90;;
27209;SDS011;14721;42.668;23.386;2023-08-30T09:58:34;5.70;;;3.20;;
27209;SDS011;14721;42.668;23.386;2023-08-30T10:04:45;7.22;;;4.03;;
27209;SDS011;14721;42.668;23.386;2023-08-30T10:08:00;7.57;;;3.08;;
27209;SDS011;14721;42.668;23.386;2023-08-30T10:35:11;7.75;;;4.15;;
27209;SDS011;14721;42.668;23.386;2023-08-30T10:38:28;8.02;;;4.25;;
27209;SDS011;14721;42.668;23.386;2023-08-30T10:41:09;7.43;;;4.13;;
27209;SDS011;14721;42.668;23.386;2023-08-30T10:43:42;7.88;;;3.20;;
27209;SDS011;14721;42.668;23.386;2023-08-30T10:46:16;5.45;;;3.55;;
27209;SDS011;14721;42.668;23.386;2023-08-30T10:48:42;7.10;;;3.90;;
27209;SDS011;14721;42.668;23.386;2023-08-30T10:54:22;8.68;;;3.80;;
27209;SDS011;14721;42.668;23.386;2023-08-30T10:59:20;7.05;;;4.15;;
27209;SDS011;14721;42.668;23.386;2023-08-30T11:01:47;6.97;;;3.53;;
27209;SDS011;14721;42.668;23.386;2023-08-30T11:04:16;7.53;;;3.63;;
27209;SDS011;14721;42.668;23.386;2023-08-30T11:06:46;5.25;;;3.42;;
27209;SDS011;14721;42.668;23.386;2023-08-30T11:09:14;7.82;;;4.72;;
27209;SDS011;14721;42.668;23.386;2023-08-30T11:11:49;6.93;;;4.35;;
27209;SDS011;14721;42.668;23.386;2023-08-30T11:14:15;8.82;;;4.05;;
27209;SDS011;14721;42.668;23.386;2023-08-30T11:16:42;9.77;;;4.05;;
27209;SDS011;14721;42.668;23.386;2023-08-30T11:19:08;12.93;;;4.50;;
27209;SDS011;14721;42.668;23.386;2023-08-30T11:21:37;9.35;;;4.75;;
27209;SDS011;14721;42.668;23.386;2023-08-30T11:24:07;7.68;;;4.30;;
27209;SDS011;14721;42.668;23.386;2023-08-30T11:26:33;5.40;;;3.88;;
27209;SDS011;14721;42.668;23.386;2023-08-30T11:29:08;6.82;;;4.13;;
27209;SDS011;14721;42.668;23.386;2023-08-30T11:31:36;10.75;;;4.18;;
27209;SDS011;14721;42.668;23.386;2023-08-30T11:34:02;5.15;;;4.00;;
27209;SDS011;14721;42.668;23.386;2023-08-30T11:36:39;8.13;;;4.45;;
27209;SDS011;14721;42.668;23.386;2023-08-30T11:39:05;6.70;;;3.72;;
27209;SDS011;14721;42.668;23.386;2023-08-30T11:41:32;8.25;;;3.80;;
27209;SDS011;14721;42.668;23.386;2023-08-30T11:43:59;6.78;;;3.80;;
27209;SDS011;14721;42.668;23.386;2023-08-30T11:46:25;6.30;;;3.78;;
27209;SDS011;14721;42.668;23.386;2023-08-30T11:48:51;9.88;;;3.97;;
27209;SDS011;14721;42.668;23.386;2023-08-30T11:51:18;6.35;;;4.43;;
27209;SDS011;14721;42.668;23.386;2023-08-30T11:53:44;7.97;;;4.57;;
27209;SDS011;14721;42.668;23.386;2023-08-30T11:56:18;9.23;;;3.95;;
27209;SDS011;14721;42.668;23.386;2023-08-30T11:58:51;6.63;;;4.03;;
27209;SDS011;14721;42.668;23.386;2023-08-30T12:01:18;15.98;;;4.28;;
27209;SDS011;14721;42.668;23.386;2023-08-30T12:07:04;9.27;;;4.15;;
27209;SDS011;14721;42.668;23.386;2023-08-30T12:09:30;6.65;;;4.75;;
27209;SDS011;14721;42.668;23.386;2023-08-30T12:12:11;9.20;;;4.63;;
27209;SDS011;14721;42.668;23.386;2023-08-30T12:14:38;6.28;;;4.25;;
27209;SDS011;14721;42.668;23.386;2023-08-30T12:17:04;7.70;;;3.85;;
27209;SDS011;14721;42.668;23.386;2023-08-30T12:19:31;9.15;;;4.60;;
27209;SDS011;14721;42.668;23.386;2023-08-30T12:22:05;6.88;;;4.35;;
27209;SDS011;14721;42.668;23.386;2023-08-30T12:24:46;7.22;;;3.92;;
27209;SDS011;14721;42.668;23.386;2023-08-30T12:27:14;10.05;;;4.85;;
27209;SDS011;14721;42.668;23.386;2023-08-30T12:29:40;9.15;;;5.38;;
27209;SDS011;14721;42.668;23.386;2023-08-30T12:32:06;10.07;;;4.20;;
27209;SDS011;14721;42.668;23.386;2023-08-30T12:34:32;8.40;;;4.20;;
27209;SDS011;14721;42.668;23.386;2023-08-30T12:36:58;6.97;;;3.75;;
27209;SDS011;14721;42.668;23.386;2023-08-30T12:39:27;8.25;;;4.80;;
27209;SDS011;14721;42.668;23.386;2023-08-30T12:41:52;8.98;;;4.68;;
27209;SDS011;14721;42.668;23.386;2023-08-30T12:44:21;6.75;;;3.92;;
27209;SDS011;14721;42.668;23.386;2023-08-30T12:46:46;9.45;;;4.18;;
27209;SDS011;14721;42.668;23.386;2023-08-30T12:49:12;10.27;;;4.50;;
27209;SDS011;14721;42.668;23.386;2023-08-30T12:51:37;7.07;;;4.05;;
27209;SDS011;14721;42.668;23.386;2023-08-30T12:54:05;6.97;;;4.28;;
27209;SDS011;14721;42.668;23.386;2023-08-30T12:56:31;9.15;;;4.72;;
27209;SDS011;14721;42.668;23.386;2023-08-30T12:59:07;7.22;;;3.92;;
27209;SDS011;14721;42.668;23.386;2023-08-30T13:01:33;7.85;;;3.88;;
27209;SDS011;14721;42.668;23.386;2023-08-30T13:03:58;8.07;;;4.38;;
27209;SDS011;14721;42.668;23.386;2023-08-30T13:06:25;9.40;;;4.63;;
27209;SDS011;14721;42.668;23.386;2023-08-30T13:08:51;9.75;;;5.00;;
27209;SDS011;14721;42.668;23.386;2023-08-30T13:11:16;8.60;;;4.40;;
27209;SDS011;14721;42.668;23.386;2023-08-30T15:02:10;5.80;;;2.53;;
27209;SDS011;14721;42.668;23.386;2023-08-30T15:05:00;4.78;;;2.40;;
27209;SDS011;14721;42.668;23.386;2023-08-30T15:14:58;7.57;;;3.08;;
27209;SDS011;14721;42.668;23.386;2023-08-30T15:25:08;4.97;;;3.30;;
27209;SDS011;14721;42.668;23.386;2023-08-30T15:28:13;6.65;;;2.30;;
27209;SDS011;14721;42.668;23.386;2023-08-30T15:37:27;4.32;;;1.98;;
27209;SDS011;14721;42.668;23.386;2023-08-30T15:40:24;7.15;;;2.45;;
27209;SDS011;14721;42.668;23.386;2023-08-30T15:43:21;6.82;;;2.53;;
27209;SDS011;14721;42.668;23.386;2023-08-30T15:46:21;5.50;;;2.30;;
27209;SDS011;14721;42.668;23.386;2023-08-30T15:52:14;8.68;;;2.38;;
27209;SDS011;14721;42.668;23.386;2023-08-30T15:55:09;5.38;;;2.40;;
27209;SDS011;14721;42.668;23.386;2023-08-30T15:58:03;9.57;;;2.53;;
27209;SDS011;14721;42.668;23.386;2023-08-30T16:00:39;6.45;;;2.40;;
27209;SDS011;14721;42.668;23.386;2023-08-30T16:03:06;6.60;;;2.35;;
27209;SDS011;14721;42.668;23.386;2023-08-30T16:05:40;4.05;;;2.28;;
27209;SDS011;14721;42.668;23.386;2023-08-30T16:08:06;6.20;;;2.03;;
27209;SDS011;14721;42.668;23.386;2023-08-30T16:10:33;4.95;;;2.40;;
27209;SDS011;14721;42.668;23.386;2023-08-30T16:13:29;6.25;;;2.55;;
27209;SDS011;14721;42.668;23.386;2023-08-30T16:15:54;9.10;;;3.75;;
27209;SDS011;14721;42.668;23.386;2023-08-30T16:18:22;7.80;;;3.15;;
27209;SDS011;14721;42.668;23.386;2023-08-30T16:20:49;6.40;;;2.25;;
27209;SDS011;14721;42.668;23.386;2023-08-30T16:23:15;4.97;;;2.15;;
27209;SDS011;14721;42.668;23.386;2023-08-30T16:25:40;6.82;;;3.13;;
27209;SDS011;14721;42.668;23.386;2023-08-30T16:28:05;5.45;;;3.50;;
27209;SDS011;14721;42.668;23.386;2023-08-30T16:30:33;7.45;;;2.25;;
27209;SDS011;14721;42.668;23.386;2023-08-30T16:33:08;8.25;;;2.70;;
27209;SDS011;14721;42.668;23.386;2023-08-30T16:35:36;7.13;;;3.30;;
27209;SDS011;14721;42.668;23.386;2023-08-30T16:38:04;5.40;;;2.65;;
27209;SDS011;14721;42.668;23.386;2023-08-30T16:40:37;5.13;;;2.47;;
27209;SDS011;14721;42.668;23.386;2023-08-30T16:43:02;8.02;;;3.50;;
27209;SDS011;14721;42.668;23.386;2023-08-30T16:45:28;5.68;;;2.10;;
27209;SDS011;14721;42.668;23.386;2023-08-30T16:47:59;8.13;;;2.80;;
27209;SDS011;14721;42.668;23.386;2023-08-30T16:50:25;71.28;;;29.58;;
27209;SDS011;14721;42.668;23.386;2023-08-30T16:52:53;43.95;;;18.20;;
27209;SDS011;14721;42.668;23.386;2023-08-30T16:55:18;80.15;;;29.38;;
27209;SDS011;14721;42.668;23.386;2023-08-30T16:57:56;91.38;;;37.60;;
27209;SDS011;14721;42.668;23.386;2023-08-30T17:00:22;10.73;;;3.55;;
27209;SDS011;14721;42.668;23.386;2023-08-30T17:02:49;12.15;;;5.03;;
27209;SDS011;14721;42.668;23.386;2023-08-30T17:05:55;6.80;;;2.95;;
27209;SDS011;14721;42.668;23.386;2023-08-30T17:08:40;8.73;;;3.67;;
27209;SDS011;14721;42.668;23.386;2023-08-30T17:11:10;9.32;;;6.35;;
27209;SDS011;14721;42.668;23.386;2023-08-30T17:14:17;5.97;;;3.47;;
27209;SDS011;14721;42.668;23.386;2023-08-30T17:17:09;12.38;;;4.32;;
27209;SDS011;14721;42.668;23.386;2023-08-30T17:19:47;5.65;;;2.80;;
27209;SDS011;14721;42.668;23.386;2023-08-30T17:22:16;11.00;;;2.40;;
27209;SDS011;14721;42.668;23.386;2023-08-30T17:25:20;5.72;;;2.40;;
27209;SDS011;14721;42.668;23.386;2023-08-30T17:45:45;7.40;;;2.00;;
27209;SDS011;14721;42.668;23.386;2023-08-30T18:06:10;8.07;;;2.65;;
27209;SDS011;14721;42.668;23.386;2023-08-30T18:12:47;6.80;;;3.03;;
27209;SDS011;14721;42.668;23.386;2023-08-30T18:16:05;7.25;;;2.75;;
27209;SDS011;14721;42.668;23.386;2023-08-30T18:22:52;12.25;;;4.70;;
27209;SDS011;14721;42.668;23.386;2023-08-30T18:26:23;8.13;;;2.33;;
27209;SDS011;14721;42.668;23.386;2023-08-30T18:29:14;7.40;;;2.30;;
27209;SDS011;14721;42.668;23.386;2023-08-30T18:32:03;7.45;;;3.30;;
27209;SDS011;14721;42.668;23.386;2023-08-30T18:34:42;7.05;;;3.47;;
27209;SDS011;14721;42.668;23.386;2023-08-30T18:41:04;5.60;;;3.42;;
27209;SDS011;14721;42.668;23.386;2023-08-30T19:18:58;10.20;;;4.65;;
27209;SDS011;14721;42.668;23.386;2023-08-30T19:35:53;10.68;;;4.95;;
27209;SDS011;14721;42.668;23.386;2023-08-30T19:38:39;6.22;;;3.05;;
27209;SDS011;14721;42.668;23.386;2023-08-30T19:41:46;13.07;;;5.38;;
27209;SDS011;14721;42.668;23.386;2023-08-30T19:44:56;9.23;;;4.25;;
27209;SDS011;14721;42.668;23.386;2023-08-30T19:51:00;17.67;;;9.10;;
27209;SDS011;14721;42.668;23.386;2023-08-30T19:53:59;8.30;;;4.30;;
27209;SDS011;14721;42.668;23.386;2023-08-30T20:00:06;7.60;;;3.85;;
27209;SDS011;14721;42.668;23.386;2023-08-30T20:02:38;14.57;;;6.57;;
27209;SDS011;14721;42.668;23.386;2023-08-30T20:05:04;12.05;;;5.07;;
27209;SDS011;14721;42.668;23.386;2023-08-30T20:07:32;7.47;;;4.00;;
27209;SDS011;14721;42.668;23.386;2023-08-30T20:10:02;9.85;;;4.25;;
27209;SDS011;14721;42.668;23.386;2023-08-30T20:12:31;12.13;;;5.50;;
27209;SDS011;14721;42.668;23.386;2023-08-30T20:15:00;13.18;;;5.03;;
27209;SDS011;14721;42.668;23.386;2023-08-30T20:17:46;10.60;;;3.42;;
27209;SDS011;14721;42.668;23.386;2023-08-30T20:20:11;8.23;;;3.60;;
27209;SDS011;14721;42.668;23.386;2023-08-30T20:22:39;10.07;;;3.08;;
27209;SDS011;14721;42.668;23.386;2023-08-30T20:25:06;8.05;;;2.90;;
27209;SDS011;14721;42.668;23.386;2023-08-30T20:27:52;9.57;;;3.85;;
27209;SDS011;14721;42.668;23.386;2023-08-30T20:30:22;8.10;;;3.67;;
27209;SDS011;14721;42.668;23.386;2023-08-30T20:32:48;7.22;;;3.58;;
27209;SDS011;14721;42.668;23.386;2023-08-30T20:35:15;8.27;;;3.35;;
27209;SDS011;14721;42.668;23.386;2023-08-30T20:37:49;8.02;;;3.75;;
27209;SDS011;14721;42.668;23.386;2023-08-30T20:40:34;6.60;;;3.08;;
27209;SDS011;14721;42.668;23.386;2023-08-30T20:43:17;6.40;;;3.17;;
27209;SDS011;14721;42.668;23.386;2023-08-30T20:49:32;10.82;;;3.28;;
27209;SDS011;14721;42.668;23.386;2023-08-30T20:52:29;7.65;;;2.90;;
27209;SDS011;14721;42.668;23.386;2023-08-30T20:55:28;6.82;;;3.20;;
27209;SDS011;14721;42.668;23.386;2023-08-30T20:57:58;13.38;;;2.88;;
27209;SDS011;14721;42.668;23.386;2023-08-30T21:00:23;6.18;;;2.80;;
27209;SDS011;14721;42.668;23.386;2023-08-30T21:02:49;7.90;;;2.88;;
27209;SDS011;14721;42.668;23.386;2023-08-30T21:05:14;16.10;;;4.70;;
27209;SDS011;14721;42.668;23.386;2023-08-30T21:07:40;8.38;;;3.55;;
27209;SDS011;14721;42.668;23.386;2023-08-30T21:10:18;9.48;;;3.22;;
27209;SDS011;14721;42.668;23.386;2023-08-30T21:12:47;11.60;;;3.30;;
27209;SDS011;14721;42.668;23.386;2023-08-30T21:15:13;7.68;;;3.00;;
27209;SDS011;14721;42.668;23.386;2023-08-30T21:17:38;12.63;;;3.40;;
27209;SDS011;14721;42.668;23.386;2023-08-30T21:20:11;9.68;;;4.03;;
27209;SDS011;14721;42.668;23.386;2023-08-30T21:22:42;8.00;;;3.42;;
27209;SDS011;14721;42.668;23.386;2023-08-30T21:25:07;8.13;;;3.47;;
27209;SDS011;14721;42.668;23.386;2023-08-30T21:27:33;6.28;;;3.00;;
27209;SDS011;14721;42.668;23.386;2023-08-30T21:29:58;7.43;;;2.92;;
27209;SDS011;14721;42.668;23.386;2023-08-30T21:32:44;9.27;;;3.97;;
27209;SDS011;14721;42.668;23.386;2023-08-30T21:35:30;9.73;;;3.53;;
27209;SDS011;14721;42.668;23.386;2023-08-30T21:38:11;9.27;;;3.85;;
27209;SDS011;14721;42.668;23.386;2023-08-30T21:40:49;9.07;;;3.00;;
27209;SDS011;14721;42.668;23.386;2023-08-30T21:43:14;9.60;;;3.72;;
27209;SDS011;14721;42.668;23.386;2023-08-30T21:45:40;11.77;;;4.13;;
27209;SDS011;14721;42.668;23.386;2023-08-30T21:48:07;6.70;;;2.88;;
27209;SDS011;14721;42.668;23.386;2023-08-30T21:50:33;8.70;;;3.85;;
27209;SDS011;14721;42.668;23.386;2023-08-30T21:52:59;7.22;;;2.85;;
27209;SDS011;14721;42.668;23.386;2023-08-30T21:55:31;5.50;;;2.67;;
27209;SDS011;14721;42.668;23.386;2023-08-30T21:58:30;7.88;;;3.13;;
27209;SDS011;14721;42.668;23.386;2023-08-30T22:01:20;7.13;;;3.80;;
27209;SDS011;14721;42.668;23.386;2023-08-30T22:03:56;6.63;;;3.38;;
27209;SDS011;14721;42.668;23.386;2023-08-30T22:06:52;5.97;;;3.10;;